x

Bw Pioneer Buoy - Walker Ridge 249 (42360) Wave Buoy

8:00am - Fri 25th Apr 2014 All times are UTC.

  • Sig Wave height 1.3ft
  • Peak Period 3s
  • Wind
    2mph, 4mph gusts
  • Sea Temp 75°f
  • Air Temp 73°f
  • Sea Pressure 1012.8mb

More Historic Weather Station data

Upgrade to MSW Pro to gain access to the past 30 days of data for over 8000 Wavebouys and Weather Stations around the globe.

Join Pro

Comparision Forecast

View Surf forecast
   
Fri 04/25 8:00am 1.3ft 3s 2 4 mph 1012.8mb 75f 73f
7:00am 1.3ft 4s 4 7 mph 1013.1mb 75f 73f
6:00am 1.3ft 3s 2 4 mph 1013.8mb 75f 73f
5:00am 1ft 3s 9 11 mph 1013.8mb 75f 74f
4:00am 1ft 3s 16 18 mph 1013.2mb 75f 74f
3:00am 1ft 3s 11 16 mph 1013.6mb 75f 74f
2:00am 1ft 3s 11 16 mph 1013.1mb 75f 73f
1:00am 1.3ft 3s 11 13 mph 1012.8mb 75f 74f
12:00am 1.3ft 3s 9 11 mph 1013.1mb 75f 74f
Thu 04/24 11:00pm 1ft 3s 11 13 mph 1012.7mb 75f 74f
10:00pm 1.3ft 3s 11 13 mph 1012.7mb 75f 74f
9:00pm 1.3ft 3s 13 18 mph 1013mb 75f 74f
8:00pm 1.3ft 3s 13 16 mph 1013.8mb 75f 74f
7:00pm 1.3ft 3s 13 16 mph 1014.5mb 75f 74f
6:00pm 1.3ft 3s 13 18 mph 1014.9mb 75f 73f
5:00pm 1ft 3s 13 18 mph 1015.3mb 75f 73f
4:00pm 1ft 3s 13 18 mph 1015.4mb 74f 73f
3:00pm 1ft 3s 13 16 mph 1015.3mb 74f 73f
2:00pm 1ft 3s 13 16 mph 1014.8mb 74f 73f
1:00pm 1ft 3s 13 16 mph 1014.1mb 74f 72f
12:00pm 1ft 6s 13 16 mph 1013.3mb 74f 72f
11:00am 1ft 3s 11 13 mph 1013.1mb - 72f
10:00am 0.7ft  -  9 13 mph 1012.6mb 74f 72f
9:00am 1ft 3s 9 13 mph 1012.8mb 74f 72f
8:00am 0.7ft  -  9 11 mph 1013.1mb 75f 72f
7:00am 1ft 2s 11 13 mph 1013.3mb 75f 72f
6:00am 0.7ft  -  11 13 mph 1013.8mb 74f 73f
5:00am 0.7ft  -  13 16 mph 1013.7mb 74f 73f
4:00am 0.7ft  -  11 13 mph 1013.8mb 75f 73f
3:00am 0.7ft  -  11 13 mph 1013.9mb 75f 73f
2:00am 0.7ft  -  11 13 mph 1013.6mb 75f 74f
1:00am 0.7ft  -  7 9 mph 1013.5mb 75f 74f
12:00am 0.7ft  -  4 9 mph 1013.2mb 75f 74f
Wed 04/23 11:00pm 0.7ft  -  4 7 mph 1013mb 75f 74f
10:00pm 0.7ft  -  4 7 mph 1013.2mb 75f 74f
9:00pm 0.7ft  -  4 9 mph 1013.7mb 75f 74f
8:00pm 0.7ft  -  4 7 mph 1014.5mb 75f 74f
7:00pm 0.7ft  -   -  2 mph 1015.3mb 74f 75f
6:00pm 0.7ft  -  2 4 mph 1015.5mb 74f 73f
5:00pm 1ft 6s 2 7 mph 1016.4mb 74f 73f
4:00pm 1ft 3s 2 7 mph 1016.6mb 74f 73f
3:00pm 0.7ft  -  2
mph
1016.5mb 74f 73f
2:00pm 1ft 3s 2 4 mph 1015.9mb 74f 72f
1:00pm 0.7ft  -  2 7 mph 1015.6mb 74f 71f
12:00pm 0.7ft  -  4 7 mph 1015.2mb 74f 71f
11:00am 0.7ft  -  4
mph
1014.4mb 74f 71f
10:00am 0.7ft  -  2 4 mph 1014.1mb 74f 71f
9:00am 0.7ft  -  4 7 mph 1013.9mb 74f 71f
8:00am 0.7ft  -  4
mph
1013.9mb 74f 71f
7:00am 0.7ft  -  7 9 mph 1014.2mb 74f 71f
6:00am 0.7ft  -  2 4 mph 1014.8mb 74f 71f
5:00am 1ft 5s  -  2 mph 1015mb 74f 71f
4:00am 1ft 5s 7
mph
1015mb 74f 71f
3:00am 1ft 4s 7 11 mph 1014.9mb 74f 72f
2:00am 1ft 5s 7 11 mph 1014.5mb 74f 71f
1:00am 1ft 4s 9 13 mph 1013.9mb - 72f
12:00am 1ft 5s 11 16 mph 1013.6mb 75f 72f
Tue 04/22 11:00pm 1.3ft 5s 9 11 mph 1013.9mb 75f 72f
10:00pm 1.3ft 4s 9 11 mph 1014.2mb 75f 72f
9:00pm 1.3ft 6s 7 9 mph 1014.2mb 75f 72f
8:00pm 1.3ft 7s 9 11 mph 1014.8mb 75f 71f
7:00pm 1.3ft 7s 9 11 mph 1015.4mb 74f 71f
6:00pm 1.3ft 5s 11 13 mph 1015.8mb 74f 71f
5:00pm 1.3ft 5s 11 13 mph 1016.6mb 74f 71f
4:00pm 1.3ft 5s 9 11 mph 1017.1mb 74f 71f
3:00pm 1.3ft 5s 7 11 mph 1017.1mb 73f 71f
2:00pm 1.3ft 5s 9 11 mph 1016.6mb 73f 70f
1:00pm 1.6ft 5s 9 11 mph 1017mb 73f 70f
12:00pm 1.3ft 5s 7 9 mph 1016.4mb 73f 69f
11:00am 1.6ft 5s 7 9 mph 1016.1mb 73f 69f
10:00am 1.6ft 5s 2 4 mph 1015.5mb 73f 69f
9:00am 1.6ft 5s 2 4 mph 1015.5mb 73f 69f
8:00am 1.6ft 5s 4 7 mph 1015.8mb 73f 69f
7:00am 1.6ft 5s 9 11 mph 1015.9mb 73f 69f
6:00am 1.6ft 5s 7 11 mph 1016.4mb 73f 69f
5:00am 1.6ft 6s 11 13 mph 1016.4mb 73f 70f
4:00am 1.6ft 5s 9 11 mph 1016.9mb 73f 70f
3:00am 1.6ft 5s 9 13 mph 1016.9mb 74f 70f
2:00am 1.6ft 5s 11 16 mph 1016.9mb 74f 70f
1:00am 1.6ft 6s 11 13 mph 1016.6mb 74f 70f
12:00am 2ft 6s 9 13 mph 1016.8mb 74f 70f
Mon 04/21 11:00pm 2ft 6s 9 11 mph 1017.1mb 74f 70f
10:00pm 2.5ft 5s 7 11 mph 1017.4mb 74f 70f
9:00pm 2.5ft 5s 7 11 mph 1017.4mb 74f 70f
8:00pm 2.5ft 5s 9 13 mph 1017.9mb 74f 70f
7:00pm 2.5ft 5s 9 13 mph 1018.5mb 74f 70f
6:00pm 2ft 5s 7 11 mph 1019.2mb 74f 70f
5:00pm 2.5ft 5s 7 9 mph 1019.9mb 74f 70f
4:00pm 2.5ft 6s 7 9 mph 1020.3mb 73f 70f
3:00pm 2ft 5s 11 16 mph 1020mb 73f 70f
2:00pm 2ft 5s 9 16 mph 1020mb 73f 69f
1:00pm 2ft 5s 9 13 mph 1020mb 73f 69f
12:00pm 1.6ft 6s 11 13 mph 1019.6mb 73f 69f
11:00am 1.6ft 7s 7 11 mph 1019.1mb 73f 69f
10:00am 1.6ft 7s 7 9 mph 1019.3mb 73f 69f